»·PEaware :: N2442P KSMX-KBFL

N2442P :: KSMX-KBFL

FLIGHT INFORMATION

Flight Status: Arrived
Operator: Privately registered:
United States
More flights under this callsign
Pilot: Ken Q. (14290)
Aircraft: MOONEY M-20K/M ENCORE BRAVO
(M20T)
More flights by this aircraft type
Origin: KSMX Santa Maria Pub/Capt Hancock
United States
Destination: KBFL Meadows
United States
More flights between these airports :: More routes between these airports
Route: KSMX FLW EHF KBFL
File this flight plan on PilotEdge
Remarks:
Altitude:
(Current/Filed)
7,500ft
Speed:
(Current/Filed)
175kts
Departed: 30-Nov-18 12:31 PM
Arrived: 30-Nov-18 01:07 PM
Distance/Time
Traveled:
1nm/0:36
Distance/Time
To Go:
Arrived

Flight Plot

Page will automatically refresh every two minutes.

Flight plan parsing failed; only flown route is shown


Map Options




Map Legend


Flown Route
Filed Route
Departure Airport
Arrival Airport
Navaid (VOR, NDB)
Fix

Horizontal Profiles

Position Reports

Time Latitude Longitude Heading Altitude Ground
Speed
30-Nov-18 12:15 34.895547 -120.444889 314 264ft 0kts
30-Nov-18 12:16 34.895547 -120.444889 314 264ft 0kts
30-Nov-18 12:17 34.895547 -120.444889 314 264ft 0kts
30-Nov-18 12:18 34.895547 -120.444889 314 264ft 0kts
30-Nov-18 12:19 34.895547 -120.444889 314 264ft 0kts
30-Nov-18 12:20 34.895547 -120.444889 314 264ft 0kts
30-Nov-18 12:21 34.895547 -120.444889 314 264ft 0kts
30-Nov-18 12:22 34.895547 -120.444889 314 264ft 0kts
30-Nov-18 12:23 34.895547 -120.444889 314 264ft 0kts
30-Nov-18 12:24 34.895547 -120.444889 314 264ft 0kts
30-Nov-18 12:25 34.895548 -120.444889 314 264ft 0kts
30-Nov-18 12:26 34.895548 -120.444890 314 264ft 0kts
30-Nov-18 12:27 34.895548 -120.444890 314 264ft 0kts
30-Nov-18 12:28 34.895548 -120.444890 314 264ft 0kts
30-Nov-18 12:29 34.895367 -120.445068 151 264ft 5kts
30-Nov-18 12:30 34.893924 -120.445233 181 264ft 6kts
30-Nov-18 12:31 34.893432 -120.445261 181 264ft 0kts
30-Nov-18 12:32 34.893402 -120.445262 181 264ft 2kts
30-Nov-18 12:33 34.893549 -120.446750 315 264ft 34kts
30-Nov-18 12:34 34.914419 -120.469798 326 866ft 114kts
30-Nov-18 12:35 34.934905 -120.449587 67 1444ft 141kts
30-Nov-18 12:36 34.946700 -120.403208 67 2103ft 145kts
30-Nov-18 12:37 34.957787 -120.355076 64 2740ft 149kts
30-Nov-18 12:38 34.969485 -120.307845 64 3573ft 137kts
30-Nov-18 12:39 34.981136 -120.266042 59 4469ft 128kts
30-Nov-18 12:40 35.003844 -120.231151 45 5097ft 139kts
30-Nov-18 12:41 35.013853 -120.182405 73 5731ft 153kts
30-Nov-18 12:42 35.020432 -120.130483 73 6336ft 156kts
30-Nov-18 12:43 35.025521 -120.092136 70 6779ft 157kts
30-Nov-18 12:44 35.035183 -120.039842 69 7370ft 158kts
30-Nov-18 12:45 35.048728 -119.985231 65 7468ft 178kts
30-Nov-18 12:46 35.067685 -119.927819 59 7464ft 184kts
30-Nov-18 12:47 35.089479 -119.870860 59 7461ft 187kts
30-Nov-18 12:48 35.111306 -119.813767 59 7466ft 182kts
30-Nov-18 12:49 35.132775 -119.758035 59 7465ft 181kts
30-Nov-18 12:50 35.154923 -119.702403 55 7467ft 182kts
30-Nov-18 12:51 35.179037 -119.650562 52 7071ft 169kts
30-Nov-18 12:52 35.203773 -119.602490 52 6365ft 165kts
30-Nov-18 12:53 35.228246 -119.555234 52 5718ft 161kts
30-Nov-18 12:54 35.251527 -119.509841 52 5307ft 154kts
30-Nov-18 12:55 35.272139 -119.469846 52 4944ft 154kts
30-Nov-18 12:56 35.295580 -119.424776 52 4550ft 158kts
30-Nov-18 12:57 35.318629 -119.380749 52 4142ft 150kts
30-Nov-18 12:58 35.341617 -119.337829 51 3741ft 150kts
30-Nov-18 12:59 35.364823 -119.295664 51 3342ft 149kts
30-Nov-18 13:00 35.385229 -119.256677 58 2977ft 149kts
30-Nov-18 13:01 35.403736 -119.211006 59 2576ft 149kts
30-Nov-18 13:02 35.419644 -119.164083 64 2174ft 146kts
30-Nov-18 13:03 35.429594 -119.117194 82 1767ft 136kts
30-Nov-18 13:04 35.421135 -119.078832 132 1477ft 103kts
30-Nov-18 13:05 35.402291 -119.057686 146 1530ft 96kts
30-Nov-18 13:06 35.378444 -119.031120 81 1297ft 121kts
30-Nov-18 13:07 35.398862 -119.015464 327 1316ft 78kts
30-Nov-18 13:08 35.415183 -119.033575 312 1090ft 74kts
30-Nov-18 13:09 35.429416 -119.050855 311 617ft 69kts
30-Nov-18 13:10 35.436335 -119.057526 72 510ft 8kts
30-Nov-18 13:11 35.432561 -119.052402 135 510ft 25kts
30-Nov-18 13:12 35.428930 -119.048013 134 510ft 16kts
30-Nov-18 13:13 35.429869 -119.047007 79 510ft 0kts
30-Nov-18 13:14 35.429799 -119.046869 135 510ft 0kts
30-Nov-18 13:15 35.429799 -119.046869 135 510ft 0kts
30-Nov-18 13:16 34.895547 -120.444889 314 264ft 0kts

Navigation Log

Ident Type
Flight plan parsing failed, navigation log unavailable